Time;durP1;ratioP1;P1;durP2;ratioP2;P2;SDS_P1;SDS_P2;PMS_P1;PMS_P2;Temp;Humidity;BMP_temperature;BMP_pressure;BME280_temperature;BME280_humidity;BME280_pressure;Samples;Min_cycle;Max_cycle;Signal;HPM_P1;HPM_P2
2023/06/20 00:00:44;;;;;;;18.27;13.95;;;17.10;99.90;;;;;;5032631;28;20120;-63
2023/06/20 00:03:10;;;;;;;18.52;13.20;;;17.10;99.90;;;;;;4958161;28;20035;-63
2023/06/20 00:05:36;;;;;;;18.27;13.40;;;17.10;99.90;;;;;;4952059;28;20039;-62
2023/06/20 00:08:02;;;;;;;18.67;13.45;;;17.10;99.90;;;;;;5007099;28;20050;-62
2023/06/20 00:10:28;;;;;;;22.98;14.23;;;17.00;99.90;;;;;;5050141;28;20028;-62
2023/06/20 00:12:54;;;;;;;22.92;14.93;;;17.00;99.90;;;;;;5069790;28;20044;-62
2023/06/20 00:15:25;;;;;;;19.17;14.07;;;17.00;99.90;;;;;;5066273;28;25160;-62
2023/06/20 00:17:51;;;;;;;;;;;17.00;99.90;;;;;;5091075;28;23032;-63
2023/06/20 00:20:17;;;;;;;17.55;13.80;;;16.90;99.90;;;;;;5095250;28;19904;-63
2023/06/20 00:22:43;;;;;;;20.05;14.90;;;16.90;99.90;;;;;;5096746;28;20457;-62
2023/06/20 00:25:09;;;;;;;21.60;14.35;;;16.90;99.90;;;;;;5094763;28;20040;-62
2023/06/20 00:27:35;;;;;;;19.33;13.70;;;16.80;99.90;;;;;;5065655;28;20052;-63
2023/06/20 00:30:02;;;;;;;23.38;14.05;;;16.80;99.90;;;;;;5076718;28;20036;-63
2023/06/20 00:32:28;;;;;;;20.85;15.13;;;16.80;99.90;;;;;;5075821;28;20117;-63
2023/06/20 00:34:58;;;;;;;19.80;13.23;;;16.80;99.90;;;;;;5073631;28;20509;-62
2023/06/20 00:37:25;;;;;;;22.13;14.10;;;16.80;99.90;;;;;;5056101;28;20052;-63
2023/06/20 00:39:52;;;;;;;16.95;13.68;;;16.80;99.90;;;;;;5072880;28;20385;-62
2023/06/20 00:42:25;;;;;;;22.42;14.55;;;16.80;99.90;;;;;;5075586;28;20047;-63
2023/06/20 00:44:52;;;;;;;22.60;14.05;;;16.70;99.90;;;;;;5064554;28;20028;-62
2023/06/20 00:47:19;;;;;;;24.48;13.77;;;16.70;99.90;;;;;;5076129;28;20036;-62
2023/06/20 00:49:48;;;;;;;25.63;14.05;;;16.60;99.90;;;;;;5056664;28;20032;-62
2023/06/20 00:52:16;;;;;;;21.85;14.27;;;16.60;99.90;;;;;;5073276;28;20485;-62
2023/06/20 00:54:44;;;;;;;19.52;13.57;;;16.50;99.90;;;;;;5073902;28;20039;-62
2023/06/20 00:57:16;;;;;;;20.38;13.95;;;16.50;99.90;;;;;;5055230;28;20770;-62
2023/06/20 00:59:44;;;;;;;18.58;13.65;;;16.50;99.90;;;;;;5072489;28;20119;-62
2023/06/20 01:02:11;;;;;;;23.50;14.23;;;16.50;99.90;;;;;;5072827;28;24159;-62
2023/06/20 01:04:42;;;;;;;21.08;13.80;;;16.50;99.90;;;;;;5073236;28;20062;-62
2023/06/20 01:07:27;;;;;;;19.40;15.10;;;16.50;99.90;;;;;;5072913;28;20064;-62
2023/06/20 01:10:11;;;;;;;19.83;13.55;;;16.50;99.90;;;;;;5023800;28;20044;-63
2023/06/20 01:13:00;;;;;;;19.77;13.73;;;16.40;99.90;;;;;;4994665;28;20073;-62
2023/06/20 01:15:41;;;;;;;20.45;14.65;;;16.40;99.90;;;;;;4955008;28;26075;-62
2023/06/20 01:18:30;;;;;;;20.80;14.43;;;16.40;99.90;;;;;;4966431;28;20566;-62
2023/06/20 01:21:09;;;;;;;19.45;14.20;;;16.40;99.90;;;;;;4985525;28;20083;-62
2023/06/20 01:23:41;;;;;;;21.02;14.35;;;16.40;99.90;;;;;;5003432;28;20065;-62
2023/06/20 01:26:13;;;;;;;21.75;13.93;;;16.40;99.90;;;;;;5023037;28;20115;-62
2023/06/20 01:29:04;;;;;;;18.63;14.23;;;16.40;99.90;;;;;;5015392;28;20072;-63
2023/06/20 01:31:37;;;;;;;21.23;14.20;;;16.40;99.90;;;;;;5053587;28;20114;-62
2023/06/20 01:34:15;;;;;;;18.15;14.48;;;16.30;99.90;;;;;;5047280;28;20040;-62
2023/06/20 01:36:51;;;;;;;22.63;15.98;;;16.30;99.90;;;;;;5036045;28;20052;-62
2023/06/20 01:39:23;;;;;;;20.83;13.95;;;16.30;99.90;;;;;;5027580;28;20037;-62
2023/06/20 01:41:51;;;;;;;20.33;14.85;;;16.30;99.90;;;;;;4989930;28;20479;-62
2023/06/20 01:44:19;;;;;;;21.17;15.10;;;16.30;99.90;;;;;;5018769;28;20053;-62
2023/06/20 01:46:49;;;;;;;20.85;15.07;;;16.20;99.90;;;;;;5019342;28;20033;-62
2023/06/20 01:49:16;;;;;;;20.30;14.23;;;16.30;99.90;;;;;;5032163;28;24005;-62
2023/06/20 01:51:44;;;;;;;19.25;14.68;;;16.30;99.90;;;;;;5050716;28;20087;-62
2023/06/20 01:54:10;;;;;;;21.38;14.73;;;16.30;99.90;;;;;;5054200;28;20041;-62
2023/06/20 01:56:38;;;;;;;24.08;14.73;;;16.30;99.90;;;;;;5000969;28;20041;-62
2023/06/20 01:59:06;;;;;;;20.55;14.75;;;16.30;99.90;;;;;;5034474;28;20502;-62
2023/06/20 02:01:33;;;;;;;23.08;15.00;;;16.30;99.90;;;;;;5002590;28;20064;-62
2023/06/20 02:04:02;;;;;;;20.30;13.90;;;16.20;99.90;;;;;;5005069;28;20506;-62
2023/06/20 02:06:29;;;;;;;23.05;15.30;;;16.20;99.90;;;;;;5052117;28;20085;-62
2023/06/20 02:08:57;;;;;;;18.80;15.90;;;16.20;99.90;;;;;;5054502;28;20055;-62
2023/06/20 02:11:26;;;;;;;22.45;15.73;;;16.20;99.90;;;;;;5024128;28;20115;-63
2023/06/20 02:13:52;;;;;;;22.42;15.10;;;16.20;99.90;;;;;;5035309;28;20033;-62
2023/06/20 02:16:21;;;;;;;25.10;15.32;;;16.10;99.90;;;;;;5033221;28;20068;-62
2023/06/20 02:18:48;;;;;;;24.25;16.15;;;16.10;99.90;;;;;;5034368;28;20483;-62
2023/06/20 02:21:22;;;;;;;20.40;15.40;;;16.10;99.90;;;;;;5019344;28;20072;-62
2023/06/20 02:23:53;;;;;;;21.13;15.68;;;16.10;99.90;;;;;;5032481;28;21229;-62
2023/06/20 02:26:21;;;;;;;19.42;14.50;;;16.10;99.90;;;;;;5032518;28;20044;-62
2023/06/20 02:28:52;;;;;;;23.35;15.10;;;16.10;99.90;;;;;;5050893;28;20055;-63
2023/06/20 02:31:21;;;;;;;18.25;15.20;;;16.10;99.90;;;;;;5046672;28;20077;-62
2023/06/20 02:33:50;;;;;;;23.70;14.38;;;16.10;99.90;;;;;;5048478;28;20037;-63
2023/06/20 02:36:19;;;;;;;25.70;15.65;;;16.10;99.90;;;;;;5051223;28;20052;-63
2023/06/20 02:38:45;;;;;;;23.05;16.00;;;16.10;99.90;;;;;;5032577;28;20079;-62
2023/06/20 02:41:11;;;;;;;31.25;18.30;;;16.10;99.90;;;;;;5031610;28;20076;-63
2023/06/20 02:43:37;;;;;;;26.20;17.55;;;16.00;99.90;;;;;;5050428;28;20041;-63
2023/06/20 02:46:37;;;;;;;27.42;16.52;;;15.90;99.90;;;;;;5051043;28;20041;-62
2023/06/20 02:49:17;;;;;;;;;;;15.90;99.90;;;;;;5001056;28;20044;-63
2023/06/20 02:52:27;;;;;;;24.33;16.42;;;15.90;99.90;;;;;;5023379;28;20424;-62
2023/06/20 02:54:53;;;;;;;23.83;16.77;;;15.90;99.90;;;;;;4953790;28;20430;-62
2023/06/20 02:57:21;;;;;;;24.00;15.80;;;15.90;99.90;;;;;;5010963;28;20038;-63
2023/06/20 02:59:54;;;;;;;17.08;14.55;;;15.80;99.90;;;;;;4980007;28;20069;-63
2023/06/20 03:02:25;;;;;;;24.92;14.80;;;15.80;99.90;;;;;;5004335;28;20058;-63
2023/06/20 03:04:56;;;;;;;21.88;15.52;;;15.80;99.90;;;;;;5031241;28;20490;-62
2023/06/20 03:07:26;;;;;;;20.45;15.18;;;15.80;99.90;;;;;;5032248;28;20048;-62
2023/06/20 03:09:54;;;;;;;23.05;15.73;;;15.80;99.90;;;;;;5050208;28;20541;-63
2023/06/20 03:12:20;;;;;;;22.70;16.02;;;15.80;99.90;;;;;;5070299;28;20141;-62
2023/06/20 03:14:46;;;;;;;20.42;15.10;;;15.70;99.90;;;;;;5052792;28;20029;-62
2023/06/20 03:17:13;;;;;;;20.92;15.52;;;15.80;99.90;;;;;;5052222;28;20047;-62
2023/06/20 03:19:39;;;;;;;26.20;16.15;;;15.80;99.90;;;;;;5037518;28;20948;-62
2023/06/20 03:22:12;;;;;;;20.30;15.23;;;15.70;99.90;;;;;;5035982;28;20040;-62
2023/06/20 03:24:38;;;;;;;24.73;14.82;;;15.70;99.90;;;;;;5070509;28;20055;-62
2023/06/20 03:27:04;;;;;;;19.17;14.60;;;15.70;99.90;;;;;;5051579;28;20052;-63
2023/06/20 03:29:31;;;;;;;19.40;14.68;;;15.80;99.90;;;;;;4983298;28;20044;-62
2023/06/20 03:31:57;;;;;;;25.85;15.93;;;15.80;99.90;;;;;;5060889;28;20105;-62
2023/06/20 03:34:23;;;;;;;23.85;15.20;;;15.80;99.90;;;;;;5050238;28;20047;-63
2023/06/20 03:39:15;;;;;;;20.77;16.00;;;15.70;99.90;;;;;;5028894;28;20044;-63
2023/06/20 03:41:41;;;;;;;22.83;15.60;;;15.80;99.90;;;;;;5044289;28;20086;-63
2023/06/20 03:44:08;;;;;;;23.58;16.55;;;15.80;99.90;;;;;;5050447;28;20462;-62
2023/06/20 03:46:34;;;;;;;26.83;17.10;;;15.80;99.90;;;;;;5071757;28;20119;-63
2023/06/20 03:49:00;;;;;;;20.63;15.65;;;15.80;99.90;;;;;;5051004;28;20074;-63
2023/06/20 03:51:26;;;;;;;25.65;17.13;;;15.90;99.90;;;;;;5033919;28;20053;-62
2023/06/20 03:53:52;;;;;;;24.48;16.08;;;16.00;99.90;;;;;;5075513;28;20061;-63
2023/06/20 03:56:18;;;;;;;22.55;16.92;;;16.00;99.90;;;;;;5050190;28;20120;-63
2023/06/20 03:58:44;;;;;;;23.17;16.85;;;16.00;99.90;;;;;;5055661;28;20115;-63
2023/06/20 04:01:10;;;;;;;23.05;16.35;;;16.10;99.90;;;;;;5054878;28;20028;-63
2023/06/20 04:03:36;;;;;;;26.15;18.70;;;16.10;99.90;;;;;;5058516;28;20127;-63
2023/06/20 04:06:03;;;;;;;23.77;17.40;;;16.20;99.90;;;;;;5000812;28;20053;-63
2023/06/20 04:08:30;;;;;;;24.98;17.67;;;16.20;99.90;;;;;;5031414;28;20729;-63
2023/06/20 04:10:56;;;;;;;31.50;19.02;;;16.30;99.90;;;;;;5070567;28;20064;-63
2023/06/20 04:13:22;;;;;;;26.92;19.13;;;16.40;99.90;;;;;;5047235;28;20091;-63
2023/06/20 04:15:48;;;;;;;27.63;20.02;;;16.40;99.90;;;;;;5074826;28;20071;-63
2023/06/20 04:18:15;;;;;;;26.80;19.38;;;16.40;99.90;;;;;;5048932;28;20393;-63
2023/06/20 04:20:44;;;;;;;26.08;19.25;;;16.50;99.90;;;;;;5074554;28;20503;-63
2023/06/20 04:23:10;;;;;;;35.05;20.20;;;16.60;99.90;;;;;;5072935;28;20060;-63
2023/06/20 04:25:36;;;;;;;39.67;20.65;;;16.60;99.90;;;;;;5058551;28;20101;-63
2023/06/20 04:28:03;;;;;;;34.00;19.75;;;16.70;99.90;;;;;;5074214;28;20105;-63
2023/06/20 04:30:39;;;;;;;30.08;19.38;;;16.80;99.90;;;;;;5056916;28;20048;-63
2023/06/20 04:33:05;;;;;;;30.13;18.77;;;16.90;99.90;;;;;;5069736;28;20040;-63
2023/06/20 04:35:32;;;;;;;36.47;21.02;;;17.00;99.90;;;;;;5055011;28;20051;-63
2023/06/20 04:38:01;;;;;;;29.95;19.38;;;17.10;99.90;;;;;;5035102;28;20487;-63
2023/06/20 04:40:28;;;;;;;27.55;19.65;;;17.20;99.90;;;;;;5034215;28;20057;-63
2023/06/20 04:42:54;;;;;;;33.80;21.55;;;17.20;99.90;;;;;;5055592;28;20043;-63
2023/06/20 04:45:20;;;;;;;28.63;19.05;;;17.30;99.90;;;;;;5049894;28;20064;-63
2023/06/20 04:47:52;;;;;;;36.00;20.60;;;17.40;99.90;;;;;;5035489;28;21000;-63
2023/06/20 04:50:18;;;;;;;31.52;20.15;;;17.50;99.90;;;;;;5036068;28;20914;-63
2023/06/20 04:52:44;;;;;;;35.50;20.70;;;17.70;99.90;;;;;;5035064;28;20033;-63
2023/06/20 04:55:10;;;;;;;30.65;18.20;;;17.70;99.90;;;;;;5036742;28;20037;-63
2023/06/20 04:57:36;;;;;;;29.27;20.00;;;17.80;99.90;;;;;;5034185;28;20063;-63
2023/06/20 05:00:07;;;;;;;36.50;20.73;;;17.90;99.90;;;;;;5033911;28;20498;-63
2023/06/20 05:02:33;;;;;;;26.10;18.77;;;18.00;99.90;;;;;;5033389;28;20138;-63
2023/06/20 05:04:59;;;;;;;29.25;19.17;;;18.00;99.90;;;;;;5053265;28;20370;-63
2023/06/20 05:07:26;;;;;;;28.02;18.80;;;18.20;99.90;;;;;;5035507;28;20071;-63
2023/06/20 05:09:52;;;;;;;33.80;20.98;;;18.30;99.90;;;;;;5050840;28;20051;-63
2023/06/20 05:12:18;;;;;;;27.00;20.05;;;18.40;99.90;;;;;;5053467;28;20045;-63
2023/06/20 05:14:44;;;;;;;28.67;18.88;;;18.50;99.90;;;;;;5055398;28;20154;-63
2023/06/20 05:17:10;;;;;;;33.78;20.00;;;18.60;99.90;;;;;;5032260;28;20371;-63
2023/06/20 05:19:36;;;;;;;33.42;20.75;;;18.70;99.90;;;;;;5053090;28;20131;-63
2023/06/20 05:22:02;;;;;;;32.00;19.98;;;18.70;99.90;;;;;;5053236;28;20111;-63
2023/06/20 05:24:28;;;;;;;27.73;18.90;;;18.80;99.90;;;;;;5055519;28;20032;-63
2023/06/20 05:26:54;;;;;;;53.40;23.98;;;18.90;99.90;;;;;;5052965;28;20062;-63
2023/06/20 05:29:20;;;;;;;31.33;21.73;;;19.10;99.90;;;;;;5026703;28;20076;-63
2023/06/20 05:31:46;;;;;;;31.50;21.73;;;19.20;99.90;;;;;;5010899;28;20064;-63
2023/06/20 05:34:12;;;;;;;32.55;22.92;;;19.30;99.90;;;;;;5008165;28;20040;-63
2023/06/20 05:36:38;;;;;;;32.90;23.17;;;19.40;99.90;;;;;;5035282;28;20044;-63
2023/06/20 05:39:04;;;;;;;30.42;20.27;;;19.50;99.90;;;;;;5068733;28;20115;-63
2023/06/20 05:41:30;;;;;;;30.30;19.83;;;19.60;99.90;;;;;;5072233;28;20035;-63
2023/06/20 05:43:56;;;;;;;31.02;19.15;;;19.70;99.90;;;;;;5044656;28;20024;-63
2023/06/20 05:46:22;;;;;;;32.08;19.65;;;19.90;99.90;;;;;;5068895;28;20052;-63
2023/06/20 05:48:48;;;;;;;25.05;19.00;;;19.90;99.90;;;;;;5068022;28;20051;-63
2023/06/20 05:51:14;;;;;;;27.88;19.20;;;20.10;99.90;;;;;;5040361;28;20047;-63
2023/06/20 05:53:41;;;;;;;31.13;19.77;;;20.20;99.90;;;;;;5068873;28;20040;-63
2023/06/20 05:56:08;;;;;;;23.27;17.00;;;20.40;99.90;;;;;;5067653;28;20127;-63
2023/06/20 05:58:36;;;;;;;36.03;18.85;;;20.50;99.90;;;;;;5067756;28;20173;-63
2023/06/20 06:01:03;;;;;;;28.45;18.33;;;20.60;99.90;;;;;;5067785;28;20060;-63
2023/06/20 06:03:32;;;;;;;26.55;18.10;;;20.70;99.90;;;;;;5069479;28;20039;-63
2023/06/20 06:05:58;;;;;;;25.63;17.65;;;20.80;99.90;;;;;;5067165;28;20044;-63
2023/06/20 06:08:25;;;;;;;28.13;18.35;;;21.00;99.90;;;;;;5067537;28;20093;-63
2023/06/20 06:10:54;;;;;;;27.80;19.02;;;21.10;99.90;;;;;;5080477;28;20051;-63
2023/06/20 06:13:20;;;;;;;34.13;17.83;;;21.20;99.90;;;;;;5057889;28;20163;-63
2023/06/20 06:15:46;;;;;;;27.70;16.88;;;21.40;99.90;;;;;;4992707;28;20136;-63
2023/06/20 06:18:12;;;;;;;37.50;19.00;;;21.50;99.90;;;;;;5039780;28;20064;-63
2023/06/20 06:20:38;;;;;;;25.63;17.05;;;21.60;99.90;;;;;;5045718;28;20049;-63
2023/06/20 06:23:07;;;;;;;30.73;17.92;;;21.80;99.90;;;;;;5054297;28;20543;-63
2023/06/20 06:25:33;;;;;;;26.23;17.67;;;22.00;99.90;;;;;;5056295;28;20052;-63
2023/06/20 06:27:59;;;;;;;30.30;17.70;;;22.10;99.90;;;;;;5067115;28;20113;-63
2023/06/20 06:30:25;;;;;;;31.00;17.02;;;22.30;99.90;;;;;;5070446;28;20083;-63
2023/06/20 06:32:51;;;;;;;24.15;16.08;;;22.30;99.90;;;;;;5071101;28;20036;-63
2023/06/20 06:35:18;;;;;;;29.42;16.73;;;22.50;99.90;;;;;;5028063;28;20123;-63
2023/06/20 06:37:46;;;;;;;23.95;15.32;;;22.70;99.90;;;;;;5052008;28;20036;-63
2023/06/20 06:40:13;;;;;;;22.17;15.85;;;22.80;99.90;;;;;;5058367;28;20044;-63
2023/06/20 06:42:39;;;;;;;25.58;16.40;;;23.00;99.90;;;;;;5050856;28;20040;-63
2023/06/20 06:45:07;;;;;;;24.40;15.77;;;23.20;99.90;;;;;;5036220;28;20045;-63
2023/06/20 06:47:34;;;;;;;22.83;15.85;;;23.40;99.90;;;;;;5088488;28;20049;-63
2023/06/20 06:50:00;;;;;;;26.98;18.45;;;23.60;99.90;;;;;;5084169;28;20985;-63
2023/06/20 06:52:26;;;;;;;22.90;14.63;;;23.70;99.90;;;;;;5081189;28;20040;-63
2023/06/20 06:54:52;;;;;;;25.15;15.93;;;23.80;99.90;;;;;;5053265;28;20051;-63
2023/06/20 06:57:18;;;;;;;29.17;16.48;;;24.00;99.90;;;;;;5063139;28;20381;-63
2023/06/20 06:59:44;;;;;;;29.80;15.30;;;24.20;99.90;;;;;;5066517;28;20048;-63
2023/06/20 07:02:10;;;;;;;39.65;16.92;;;24.30;99.90;;;;;;5063418;28;20130;-63
2023/06/20 07:04:36;;;;;;;30.48;15.70;;;24.50;99.90;;;;;;5021448;28;20048;-63
2023/06/20 07:07:02;;;;;;;25.30;14.52;;;24.70;99.90;;;;;;5033014;28;20494;-63
2023/06/20 07:09:30;;;;;;;21.75;13.68;;;24.90;99.90;;;;;;5064244;28;20477;-63
2023/06/20 07:11:56;;;;;;;20.55;13.07;;;25.20;99.90;;;;;;5075412;28;20052;-63
2023/06/20 07:14:23;;;;;;;17.98;12.52;;;25.40;99.90;;;;;;5094101;28;20073;-64
2023/06/20 07:16:49;;;;;;;21.52;12.98;;;25.80;99.90;;;;;;5090747;28;20070;-63
2023/06/20 07:19:15;;;;;;;24.13;14.10;;;26.10;99.90;;;;;;5064205;28;20056;-63
2023/06/20 07:21:41;;;;;;;20.52;13.13;;;26.20;99.90;;;;;;5044300;28;20037;-63
2023/06/20 07:24:07;;;;;;;19.48;12.40;;;26.60;99.90;;;;;;5055714;28;20036;-64
2023/06/20 07:26:33;;;;;;;23.50;13.85;;;26.90;99.90;;;;;;5070087;28;21806;-64
2023/06/20 07:28:59;;;;;;;20.98;13.48;;;27.20;99.90;;;;;;5062301;28;20403;-64
2023/06/20 07:31:25;;;;;;;23.25;13.32;;;27.10;99.90;;;;;;5003993;28;20079;-64
2023/06/20 07:33:51;;;;;;;20.85;12.85;;;27.50;99.90;;;;;;5046989;28;20098;-64
2023/06/20 07:36:17;;;;;;;27.67;14.40;;;27.80;99.90;;;;;;5058066;28;20083;-64
2023/06/20 07:38:43;;;;;;;19.35;13.07;;;28.10;99.90;;;;;;5025168;28;20067;-64
2023/06/20 07:41:09;;;;;;;20.52;13.77;;;28.30;99.90;;;;;;5069993;28;20040;-64
2023/06/20 07:43:34;;;;;;;22.08;13.80;;;28.50;89.50;;;;;;5068827;28;20623;-64
2023/06/20 07:46:00;;;;;;;28.67;15.82;;;28.70;82.30;;;;;;5069767;28;20048;-64
2023/06/20 07:48:29;;;;;;;20.95;13.35;;;29.00;79.00;;;;;;5069816;28;20036;-64
2023/06/20 07:50:56;;;;;;;23.30;14.90;;;29.30;78.10;;;;;;5071249;28;20044;-64
2023/06/20 07:53:23;;;;;;;23.63;13.38;;;29.70;77.60;;;;;;5069133;28;20185;-64
2023/06/20 07:55:49;;;;;;;21.30;13.43;;;29.50;79.40;;;;;;5069217;28;20474;-64
2023/06/20 07:58:15;;;;;;;19.77;13.35;;;29.50;76.90;;;;;;5071448;28;20103;-64
2023/06/20 08:00:43;;;;;;;25.25;13.23;;;29.70;79.40;;;;;;5050629;28;20513;-64
2023/06/20 08:03:09;;;;;;;19.33;12.10;;;30.00;79.90;;;;;;5024151;28;20490;-64
2023/06/20 08:05:35;;;;;;;19.90;12.27;;;30.20;77.30;;;;;;5029144;28;20059;-64
2023/06/20 08:08:01;;;;;;;29.95;14.13;;;29.90;75.30;;;;;;5032711;28;20040;-63
2023/06/20 08:10:27;;;;;;;18.75;11.55;;;30.50;77.70;;;;;;5013749;28;20580;-63
2023/06/20 08:12:53;;;;;;;20.10;13.40;;;30.40;74.70;;;;;;5054303;28;21123;-63
2023/06/20 08:15:19;;;;;;;16.73;13.00;;;30.60;78.40;;;;;;5068531;28;20389;-63
2023/06/20 08:17:45;;;;;;;14.60;11.60;;;30.80;68.40;;;;;;5064789;28;20092;-63
2023/06/20 08:20:11;;;;;;;16.23;11.68;;;31.10;72.20;;;;;;5062887;28;20520;-63
2023/06/20 08:22:37;;;;;;;16.52;11.13;;;31.40;71.80;;;;;;5056345;28;20048;-63
2023/06/20 08:25:05;;;;;;;16.75;10.70;;;31.40;66.30;;;;;;5069406;28;20042;-63
2023/06/20 08:27:32;;;;;;;14.65;11.10;;;31.40;64.00;;;;;;5045007;28;20063;-63
2023/06/20 08:29:58;;;;;;;14.40;11.23;;;31.60;73.50;;;;;;5062481;28;20043;-63
2023/06/20 08:32:24;;;;;;;16.55;11.15;;;31.80;67.00;;;;;;5044808;28;24864;-63
2023/06/20 08:34:50;;;;;;;15.27;11.60;;;31.80;65.20;;;;;;5038743;28;20041;-63
2023/06/20 08:37:21;;;;;;;17.38;12.35;;;31.50;63.60;;;;;;5086810;28;20051;-62
2023/06/20 08:39:48;;;;;;;22.45;13.48;;;31.70;60.30;;;;;;5074340;28;20081;-63
2023/06/20 08:42:14;;;;;;;23.73;13.90;;;31.60;61.00;;;;;;5068919;28;20209;-62
2023/06/20 08:44:40;;;;;;;27.88;13.90;;;31.70;60.30;;;;;;5067188;28;20105;-62
2023/06/20 08:47:06;;;;;;;19.02;13.23;;;31.90;60.30;;;;;;5069660;28;20267;-62
2023/06/20 08:49:35;;;;;;;24.60;14.85;;;31.90;63.20;;;;;;5060783;28;20518;-63
2023/06/20 08:52:08;;;;;;;26.92;16.02;;;32.00;63.00;;;;;;5052679;28;20094;-63
2023/06/20 08:54:38;;;;;;;24.63;16.55;;;32.50;59.10;;;;;;5007179;28;20405;-63
2023/06/20 08:57:06;;;;;;;24.80;16.00;;;32.50;59.20;;;;;;5005549;28;20030;-63
2023/06/20 08:59:53;;;;;;;30.95;17.65;;;32.70;61.00;;;;;;4913380;28;20039;-63
2023/06/20 09:05:01;;;;;;;25.80;14.20;;;32.90;57.00;;;;;;4971440;28;20054;-63
2023/06/20 09:07:37;;;;;;;20.70;12.73;;;33.00;57.50;;;;;;5029636;28;20126;-63
2023/06/20 09:10:08;;;;;;;20.20;12.15;;;33.10;58.40;;;;;;4948481;28;20040;-63
2023/06/20 09:12:56;;;;;;;18.73;10.70;;;33.40;61.30;;;;;;4937737;28;20554;-63
2023/06/20 09:15:26;;;;;;;18.90;10.98;;;33.30;54.50;;;;;;5009010;28;20100;-63
2023/06/20 09:17:55;;;;;;;12.98;10.48;;;33.60;55.20;;;;;;5000501;28;20065;-63
2023/06/20 09:20:25;;;;;;;19.73;11.18;;;33.30;52.80;;;;;;5036541;28;20052;-63
2023/06/20 09:22:51;;;;;;;21.52;10.73;;;33.40;54.20;;;;;;5035824;28;20036;-63
2023/06/20 09:25:25;;;;;;;20.17;10.52;;;33.70;53.20;;;;;;5057742;28;20047;-63
2023/06/20 09:27:53;;;;;;;21.98;11.60;;;33.80;54.00;;;;;;5034365;28;20167;-63
2023/06/20 09:30:19;;;;;;;20.30;11.05;;;33.70;54.10;;;;;;5057576;28;20383;-63
2023/06/20 09:32:46;;;;;;;24.75;13.13;;;34.00;52.40;;;;;;5062435;28;20704;-63
2023/06/20 09:35:16;;;;;;;17.35;11.90;;;34.00;54.50;;;;;;5021165;28;20486;-63
2023/06/20 09:37:43;;;;;;;14.95;9.93;;;33.40;53.20;;;;;;5003030;28;20045;-63
2023/06/20 09:40:17;;;;;;;15.30;9.02;;;33.80;51.70;;;;;;5032340;28;20028;-62
2023/06/20 09:42:47;;;;;;;14.60;9.75;;;33.70;51.60;;;;;;5034909;28;20036;-63
2023/06/20 09:45:17;;;;;;;19.25;9.63;;;33.80;50.20;;;;;;5036448;28;20052;-63
2023/06/20 09:47:45;;;;;;;23.67;11.23;;;34.10;50.40;;;;;;5013668;28;20059;-63
2023/06/20 09:50:19;;;;;;;14.88;9.60;;;34.50;52.30;;;;;;5013076;28;20100;-63
2023/06/20 09:53:04;;;;;;;17.17;10.05;;;34.20;50.40;;;;;;5003756;28;20041;-63
2023/06/20 09:55:39;;;;;;;13.98;9.23;;;34.10;50.90;;;;;;4995284;28;20032;-63
2023/06/20 09:58:07;;;;;;;13.77;9.80;;;34.30;51.50;;;;;;4983255;28;20107;-62
2023/06/20 10:00:35;;;;;;;13.40;9.43;;;34.60;51.70;;;;;;4990499;28;20905;-62
2023/06/20 10:03:07;;;;;;;21.38;9.40;;;34.70;55.10;;;;;;4997640;28;20044;-62
2023/06/20 10:05:33;;;;;;;11.40;8.27;;;34.90;50.90;;;;;;5017726;28;20044;-62
2023/06/20 10:08:00;;;;;;;12.32;8.88;;;34.90;50.80;;;;;;5020376;28;20065;-62
2023/06/20 10:10:29;;;;;;;10.07;8.20;;;34.90;48.40;;;;;;5006451;28;20081;-63
2023/06/20 10:12:57;;;;;;;10.95;8.00;;;34.60;53.30;;;;;;4911190;28;21393;-63
2023/06/20 10:15:26;;;;;;;13.57;8.98;;;34.90;50.20;;;;;;4952835;28;20054;-63
2023/06/20 10:17:52;;;;;;;13.15;9.18;;;35.10;49.70;;;;;;4978116;28;20515;-63
2023/06/20 10:20:33;;;;;;;15.85;9.02;;;35.30;48.00;;;;;;5014978;28;20036;-62
2023/06/20 10:23:08;;;;;;;27.77;10.15;;;35.30;48.80;;;;;;5001042;28;20037;-63
2023/06/20 10:25:35;;;;;;;9.93;8.35;;;35.10;53.00;;;;;;4982098;28;20501;-62
2023/06/20 10:28:03;;;;;;;16.63;8.77;;;35.30;50.40;;;;;;5003084;28;20501;-63
2023/06/20 10:30:52;;;;;;;12.70;7.90;;;35.40;47.20;;;;;;5000709;28;20048;-63
2023/06/20 10:33:25;;;;;;;14.20;8.85;;;35.30;45.70;;;;;;4934861;28;20033;-63
2023/06/20 10:36:01;;;;;;;12.35;8.45;;;34.00;46.00;;;;;;4995828;28;20210;-63
2023/06/20 10:38:29;;;;;;;12.13;8.30;;;33.90;49.30;;;;;;5021967;28;20044;-62
2023/06/20 10:41:14;;;;;;;10.95;8.40;;;34.40;47.80;;;;;;4979426;28;20383;-63
2023/06/20 10:43:59;;;;;;;9.65;8.13;;;34.70;47.80;;;;;;5005670;28;21213;-62
2023/06/20 10:46:37;;;;;;;11.00;8.38;;;35.20;50.40;;;;;;4985821;28;24494;-63
2023/06/20 10:49:04;;;;;;;11.70;9.02;;;35.50;46.40;;;;;;4945445;28;23381;-63
2023/06/20 10:51:30;;;;;;;21.58;9.63;;;35.50;47.80;;;;;;4986478;28;23932;-63
2023/06/20 10:54:09;;;;;;;21.77;11.93;;;35.30;44.80;;;;;;4987809;28;40195;-63
2023/06/20 10:56:35;;;;;;;18.38;9.68;;;35.40;48.80;;;;;;4955750;28;41517;-63
2023/06/20 10:59:16;;;;;;;20.52;9.95;;;35.60;47.00;;;;;;5013690;28;42148;-63
2023/06/20 11:01:43;;;;;;;12.68;8.63;;;35.30;45.80;;;;;;5005930;28;44614;-63
2023/06/20 11:04:13;;;;;;;10.23;8.57;;;35.70;48.20;;;;;;4994612;28;45759;-63
2023/06/20 11:06:40;;;;;;;19.50;9.45;;;35.80;45.80;;;;;;4981265;28;46952;-63
2023/06/20 11:09:19;;;;;;;15.90;9.65;;;36.20;50.90;;;;;;4999593;28;48370;-63
2023/06/20 11:11:47;;;;;;;15.67;9.33;;;36.00;46.80;;;;;;4907123;28;49605;-63
2023/06/20 11:14:21;;;;;;;12.43;8.00;;;36.20;47.00;;;;;;4932800;28;49298;-63
2023/06/20 11:16:49;;;;;;;9.55;8.55;;;36.40;47.00;;;;;;4948164;28;49190;-63
2023/06/20 11:19:19;;;;;;;13.98;9.07;;;36.70;46.00;;;;;;4985396;28;59521;-60
2023/06/20 11:21:45;;;;;;;8.90;7.40;;;36.50;45.40;;;;;;4971274;28;49436;-61
2023/06/20 11:24:14;;;;;;;20.83;10.50;;;36.50;43.90;;;;;;4979719;28;49659;-60
2023/06/20 11:26:43;;;;;;;14.63;8.57;;;36.30;43.00;;;;;;5008533;28;49138;-60
2023/06/20 11:29:10;;;;;;;13.82;8.73;;;36.20;44.60;;;;;;5005582;28;49910;-61
2023/06/20 11:34:06;;;;;;;31.17;10.80;;;36.80;42.70;;;;;;5002197;28;48893;-61
2023/06/20 11:36:33;;;;;;;12.57;7.65;;;36.90;41.90;;;;;;4983114;28;49844;-61
2023/06/20 11:39:04;;;;;;;8.65;7.38;;;36.90;44.30;;;;;;4579410;28;167382;-61
2023/06/20 11:41:35;;;;;;;12.90;7.15;;;37.00;41.20;;;;;;4391839;31;24867;-61
2023/06/20 11:44:02;;;;;;;9.65;6.57;;;36.90;40.20;;;;;;4401993;31;38489;-61
2023/06/20 11:46:28;;;;;;;9.63;7.60;;;36.90;39.20;;;;;;4427947;31;48168;-61
2023/06/20 11:48:58;;;;;;;9.10;8.05;;;36.80;36.90;;;;;;4433117;31;49224;-61
2023/06/20 11:51:25;;;;;;;13.73;8.02;;;36.80;37.90;;;;;;4439282;31;64465;-61
2023/06/20 11:54:08;;;;;;;9.75;8.05;;;36.30;38.30;;;;;;4420304;31;66343;-61
2023/06/20 11:56:34;;;;;;;8.27;6.85;;;36.50;42.70;;;;;;4395352;32;66475;-61
2023/06/20 11:59:02;;;;;;;8.05;6.90;;;36.70;37.60;;;;;;4408630;31;67649;-61
2023/06/20 12:01:32;;;;;;;11.07;7.40;;;36.50;37.60;;;;;;4448850;31;44934;-61
2023/06/20 12:04:13;;;;;;;13.03;8.00;;;36.50;40.50;;;;;;4469747;31;45409;-61
2023/06/20 12:06:45;;;;;;;14.38;8.48;;;36.40;38.10;;;;;;4460721;31;46521;-61
2023/06/20 12:09:16;;;;;;;10.52;7.97;;;36.70;39.80;;;;;;4528091;31;45923;-61
2023/06/20 12:11:52;;;;;;;13.63;7.95;;;37.00;39.30;;;;;;4575936;30;49287;-61
2023/06/20 12:14:19;;;;;;;15.25;8.68;;;36.60;42.40;;;;;;4596998;30;49913;-61
2023/06/20 12:16:45;;;;;;;12.27;8.15;;;36.40;37.50;;;;;;4655079;29;45963;-61
2023/06/20 12:19:13;;;;;;;14.45;8.50;;;36.70;41.50;;;;;;4727481;29;48411;-61
2023/06/20 12:21:39;;;;;;;12.55;8.02;;;36.30;37.90;;;;;;4759432;29;49412;-61
2023/06/20 12:24:09;;;;;;;19.33;9.05;;;36.70;36.60;;;;;;4790614;29;49225;-63
2023/06/20 12:26:36;;;;;;;16.33;8.82;;;35.90;37.20;;;;;;4801726;29;72826;-64
2023/06/20 12:29:05;;;;;;;9.68;7.38;;;35.70;41.20;;;;;;4829040;29;49023;-64
2023/06/20 12:31:32;;;;;;;9.48;7.35;;;36.00;38.00;;;;;;4867922;28;49930;-63
2023/06/20 12:33:58;;;;;;;9.10;7.32;;;36.00;39.90;;;;;;4903701;28;49421;-63
2023/06/20 12:36:24;;;;;;;8.77;7.47;;;36.00;39.40;;;;;;4944913;28;49361;-63
2023/06/20 12:38:50;;;;;;;8.63;7.72;;;35.90;42.10;;;;;;4985510;28;49169;-63
2023/06/20 12:41:17;;;;;;;9.38;7.68;;;36.00;37.60;;;;;;5004382;28;49613;-63
2023/06/20 12:43:43;;;;;;;8.90;7.53;;;35.90;41.10;;;;;;5007214;28;50100;-63
2023/06/20 12:46:10;;;;;;;10.10;7.82;;;35.90;38.30;;;;;;4985949;28;49565;-63